sensor_id;sensor_type;location;lat;lon;timestamp;pressure;altitude;pressure_sealevel;temperature;humidity
57628;BME280;43451;49.060;10.616;2022-08-18T00:01:06;96424.44;;;19.46;98.15
57628;BME280;43451;49.060;10.616;2022-08-18T00:03:31;96431.91;;;19.37;98.96
57628;BME280;43451;49.060;10.616;2022-08-18T00:05:57;96432.66;;;19.28;100.00
57628;BME280;43451;49.060;10.616;2022-08-18T00:08:22;96438.50;;;19.39;98.54
57628;BME280;43451;49.060;10.616;2022-08-18T00:10:47;96437.13;;;19.35;98.69
57628;BME280;43451;49.060;10.616;2022-08-18T00:13:13;96440.94;;;19.37;99.89
57628;BME280;43451;49.060;10.616;2022-08-18T00:15:38;96438.31;;;19.24;100.00
57628;BME280;43451;49.060;10.616;2022-08-18T00:18:03;96447.06;;;19.23;100.00
57628;BME280;43451;49.060;10.616;2022-08-18T00:20:28;96448.72;;;19.20;100.00
57628;BME280;43451;49.060;10.616;2022-08-18T00:22:54;96450.69;;;19.11;100.00
57628;BME280;43451;49.060;10.616;2022-08-18T00:25:21;96447.97;;;19.20;100.00
57628;BME280;43451;49.060;10.616;2022-08-18T00:27:46;96454.22;;;19.11;100.00
57628;BME280;43451;49.060;10.616;2022-08-18T00:30:16;96439.31;;;18.99;100.00
57628;BME280;43451;49.060;10.616;2022-08-18T00:32:51;96439.97;;;19.04;100.00
57628;BME280;43451;49.060;10.616;2022-08-18T00:35:24;96426.81;;;19.08;100.00
57628;BME280;43451;49.060;10.616;2022-08-18T00:37:51;96434.47;;;19.04;100.00
57628;BME280;43451;49.060;10.616;2022-08-18T00:40:19;96429.84;;;19.00;100.00
57628;BME280;43451;49.060;10.616;2022-08-18T00:42:49;96421.75;;;18.97;100.00
57628;BME280;43451;49.060;10.616;2022-08-18T00:45:20;96422.19;;;18.95;100.00
57628;BME280;43451;49.060;10.616;2022-08-18T00:47:45;96423.09;;;18.92;100.00
57628;BME280;43451;49.060;10.616;2022-08-18T00:50:12;96423.41;;;18.94;100.00
57628;BME280;43451;49.060;10.616;2022-08-18T00:52:38;96421.56;;;18.91;100.00
57628;BME280;43451;49.060;10.616;2022-08-18T00:55:04;96412.38;;;18.85;100.00
57628;BME280;43451;49.060;10.616;2022-08-18T00:57:30;96412.66;;;18.78;100.00
57628;BME280;43451;49.060;10.616;2022-08-18T00:59:56;96411.75;;;18.81;100.00
57628;BME280;43451;49.060;10.616;2022-08-18T01:02:29;96410.56;;;18.91;100.00
57628;BME280;43451;49.060;10.616;2022-08-18T01:05:07;96409.28;;;18.83;100.00
57628;BME280;43451;49.060;10.616;2022-08-18T01:07:39;96418.78;;;18.82;100.00
57628;BME280;43451;49.060;10.616;2022-08-18T01:10:15;96403.94;;;18.79;100.00
57628;BME280;43451;49.060;10.616;2022-08-18T01:12:41;96401.47;;;18.72;100.00
57628;BME280;43451;49.060;10.616;2022-08-18T01:15:07;96403.41;;;18.63;100.00
57628;BME280;43451;49.060;10.616;2022-08-18T01:17:32;96403.97;;;18.58;100.00
57628;BME280;43451;49.060;10.616;2022-08-18T01:20:17;96401.25;;;18.67;100.00
57628;BME280;43451;49.060;10.616;2022-08-18T01:23:11;96405.06;;;18.60;100.00
57628;BME280;43451;49.060;10.616;2022-08-18T01:25:37;96396.97;;;18.66;100.00
57628;BME280;43451;49.060;10.616;2022-08-18T01:28:22;96402.78;;;18.68;100.00
57628;BME280;43451;49.060;10.616;2022-08-18T01:30:52;96392.94;;;18.79;100.00
57628;BME280;43451;49.060;10.616;2022-08-18T01:33:20;96385.16;;;18.96;100.00
57628;BME280;43451;49.060;10.616;2022-08-18T01:35:45;96381.41;;;18.72;100.00
57628;BME280;43451;49.060;10.616;2022-08-18T01:38:16;96371.72;;;18.58;100.00
57628;BME280;43451;49.060;10.616;2022-08-18T01:40:43;96378.25;;;18.51;100.00
57628;BME280;43451;49.060;10.616;2022-08-18T01:43:08;96375.66;;;18.48;100.00
57628;BME280;43451;49.060;10.616;2022-08-18T01:45:34;96373.66;;;18.48;100.00
57628;BME280;43451;49.060;10.616;2022-08-18T01:47:59;96366.81;;;18.53;100.00
57628;BME280;43451;49.060;10.616;2022-08-18T01:50:25;96363.75;;;18.51;100.00
57628;BME280;43451;49.060;10.616;2022-08-18T01:52:50;96359.47;;;18.50;100.00
57628;BME280;43451;49.060;10.616;2022-08-18T01:55:18;96361.47;;;18.49;100.00
57628;BME280;43451;49.060;10.616;2022-08-18T01:57:43;96348.91;;;18.48;100.00
57628;BME280;43451;49.060;10.616;2022-08-18T02:00:12;96351.38;;;18.46;100.00
57628;BME280;43451;49.060;10.616;2022-08-18T02:02:38;96351.38;;;18.46;100.00
57628;BME280;43451;49.060;10.616;2022-08-18T02:05:13;96344.63;;;18.47;100.00
57628;BME280;43451;49.060;10.616;2022-08-18T02:07:40;96347.97;;;18.42;100.00
57628;BME280;43451;49.060;10.616;2022-08-18T02:10:07;96340.03;;;18.44;100.00
57628;BME280;43451;49.060;10.616;2022-08-18T02:12:34;96329.19;;;18.41;100.00
57628;BME280;43451;49.060;10.616;2022-08-18T02:15:00;96327.19;;;18.41;100.00
57628;BME280;43451;49.060;10.616;2022-08-18T02:17:25;96322.25;;;18.36;100.00
57628;BME280;43451;49.060;10.616;2022-08-18T02:19:50;96314.06;;;18.45;100.00
57628;BME280;43451;49.060;10.616;2022-08-18T02:22:16;96304.09;;;18.39;100.00
57628;BME280;43451;49.060;10.616;2022-08-18T02:24:42;96299.09;;;18.46;100.00
57628;BME280;43451;49.060;10.616;2022-08-18T02:27:08;96294.97;;;18.51;100.00
57628;BME280;43451;49.060;10.616;2022-08-18T02:29:34;96292.50;;;18.44;100.00
57628;BME280;43451;49.060;10.616;2022-08-18T02:32:00;96299.03;;;18.28;100.00
57628;BME280;43451;49.060;10.616;2022-08-18T02:34:25;96301.44;;;18.26;100.00
57628;BME280;43451;49.060;10.616;2022-08-18T02:36:50;96308.50;;;18.27;100.00
57628;BME280;43451;49.060;10.616;2022-08-18T02:39:16;96308.63;;;18.23;100.00
57628;BME280;43451;49.060;10.616;2022-08-18T02:41:41;96294.56;;;18.21;100.00
57628;BME280;43451;49.060;10.616;2022-08-18T02:44:07;96285.25;;;18.19;100.00
57628;BME280;43451;49.060;10.616;2022-08-18T02:46:32;96284.94;;;18.26;100.00
57628;BME280;43451;49.060;10.616;2022-08-18T02:48:58;96281.91;;;18.24;100.00
57628;BME280;43451;49.060;10.616;2022-08-18T02:51:23;96290.63;;;18.31;100.00
57628;BME280;43451;49.060;10.616;2022-08-18T02:53:48;96291.06;;;18.21;100.00
57628;BME280;43451;49.060;10.616;2022-08-18T02:58:47;96288.88;;;18.16;100.00
57628;BME280;43451;49.060;10.616;2022-08-18T03:01:12;96284.91;;;18.17;100.00
57628;BME280;43451;49.060;10.616;2022-08-18T03:03:38;96285.25;;;18.19;100.00
57628;BME280;43451;49.060;10.616;2022-08-18T03:06:03;96281.25;;;18.20;100.00
57628;BME280;43451;49.060;10.616;2022-08-18T03:08:29;96286.16;;;18.16;100.00
57628;BME280;43451;49.060;10.616;2022-08-18T03:10:54;96279.88;;;18.15;100.00
57628;BME280;43451;49.060;10.616;2022-08-18T03:13:19;96276.66;;;18.17;100.00
57628;BME280;43451;49.060;10.616;2022-08-18T03:15:45;96277.56;;;18.14;100.00
57628;BME280;43451;49.060;10.616;2022-08-18T03:18:11;96275.28;;;18.12;100.00
57628;BME280;43451;49.060;10.616;2022-08-18T03:20:36;96275.88;;;18.07;100.00
57628;BME280;43451;49.060;10.616;2022-08-18T03:23:02;96271.13;;;18.07;100.00
57628;BME280;43451;49.060;10.616;2022-08-18T03:25:28;96277.41;;;18.08;100.00
57628;BME280;43451;49.060;10.616;2022-08-18T03:27:53;96279.53;;;18.04;100.00
57628;BME280;43451;49.060;10.616;2022-08-18T03:30:18;96274.63;;;17.99;100.00
57628;BME280;43451;49.060;10.616;2022-08-18T03:32:44;96270.50;;;18.03;100.00
57628;BME280;43451;49.060;10.616;2022-08-18T03:35:10;96276.47;;;18.02;100.00
57628;BME280;43451;49.060;10.616;2022-08-18T03:37:36;96267.09;;;17.90;100.00
57628;BME280;43451;49.060;10.616;2022-08-18T03:40:01;96266.63;;;17.82;100.00
57628;BME280;43451;49.060;10.616;2022-08-18T03:42:27;96270.69;;;17.78;100.00
57628;BME280;43451;49.060;10.616;2022-08-18T03:44:52;96275.28;;;17.81;100.00
57628;BME280;43451;49.060;10.616;2022-08-18T03:47:18;96263.22;;;17.78;100.00
57628;BME280;43451;49.060;10.616;2022-08-18T03:49:43;96269.56;;;17.75;100.00
57628;BME280;43451;49.060;10.616;2022-08-18T03:52:09;96263.22;;;17.78;100.00
57628;BME280;43451;49.060;10.616;2022-08-18T03:54:35;96272.22;;;17.79;100.00
57628;BME280;43451;49.060;10.616;2022-08-18T03:57:02;96268.81;;;17.75;100.00
57628;BME280;43451;49.060;10.616;2022-08-18T03:59:28;96273.44;;;17.78;100.00
57628;BME280;43451;49.060;10.616;2022-08-18T04:01:55;96280.47;;;17.79;100.00
57628;BME280;43451;49.060;10.616;2022-08-18T04:04:25;96284.00;;;17.79;100.00
57628;BME280;43451;49.060;10.616;2022-08-18T04:06:56;96287.22;;;17.87;100.00
57628;BME280;43451;49.060;10.616;2022-08-18T04:09:23;96283.13;;;17.92;100.00
57628;BME280;43451;49.060;10.616;2022-08-18T04:11:48;96291.97;;;17.86;100.00
57628;BME280;43451;49.060;10.616;2022-08-18T04:14:16;96281.13;;;17.83;100.00
57628;BME280;43451;49.060;10.616;2022-08-18T04:16:42;96278.03;;;17.81;100.00
57628;BME280;43451;49.060;10.616;2022-08-18T04:19:07;96276.25;;;17.87;100.00
57628;BME280;43451;49.060;10.616;2022-08-18T04:21:35;96277.13;;;17.84;100.00
57628;BME280;43451;49.060;10.616;2022-08-18T04:24:02;96281.72;;;17.87;100.00
57628;BME280;43451;49.060;10.616;2022-08-18T04:26:32;96279.13;;;17.83;100.00
57628;BME280;43451;49.060;10.616;2022-08-18T04:28:58;96288.13;;;17.84;100.00
57628;BME280;43451;49.060;10.616;2022-08-18T04:31:25;96288.75;;;17.88;100.00
57628;BME280;43451;49.060;10.616;2022-08-18T04:33:51;96280.50;;;17.88;100.00
57628;BME280;43451;49.060;10.616;2022-08-18T04:36:16;96283.25;;;17.88;100.00
57628;BME280;43451;49.060;10.616;2022-08-18T04:38:42;96280.78;;;17.81;100.00
57628;BME280;43451;49.060;10.616;2022-08-18T04:41:08;96282.50;;;17.88;100.00
57628;BME280;43451;49.060;10.616;2022-08-18T04:43:34;96286.97;;;17.94;100.00
57628;BME280;43451;49.060;10.616;2022-08-18T04:45:59;96279.19;;;17.93;100.00
57628;BME280;43451;49.060;10.616;2022-08-18T04:48:38;96291.56;;;17.97;100.00
57628;BME280;43451;49.060;10.616;2022-08-18T04:51:09;96294.00;;;17.95;100.00
57628;BME280;43451;49.060;10.616;2022-08-18T04:53:35;96290.97;;;18.02;100.00
57628;BME280;43451;49.060;10.616;2022-08-18T04:56:13;96299.81;;;17.97;100.00
57628;BME280;43451;49.060;10.616;2022-08-18T04:58:39;96302.88;;;17.99;100.00
57628;BME280;43451;49.060;10.616;2022-08-18T05:01:04;96296.78;;;18.04;100.00
57628;BME280;43451;49.060;10.616;2022-08-18T05:03:33;96311.59;;;18.07;100.00
57628;BME280;43451;49.060;10.616;2022-08-18T05:05:58;96301.88;;;18.15;100.00
57628;BME280;43451;49.060;10.616;2022-08-18T05:08:24;96295.66;;;18.24;100.00
57628;BME280;43451;49.060;10.616;2022-08-18T05:10:53;96295.94;;;18.26;100.00
57628;BME280;43451;49.060;10.616;2022-08-18T05:13:18;96304.53;;;18.28;100.00
57628;BME280;43451;49.060;10.616;2022-08-18T05:15:44;96313.09;;;18.30;100.00
57628;BME280;43451;49.060;10.616;2022-08-18T05:18:09;96318.13;;;18.31;100.00
57628;BME280;43451;49.060;10.616;2022-08-18T05:20:36;96319.66;;;18.32;100.00
57628;BME280;43451;49.060;10.616;2022-08-18T05:23:01;96336.63;;;18.31;100.00
57628;BME280;43451;49.060;10.616;2022-08-18T05:25:26;96333.72;;;18.35;100.00
57628;BME280;43451;49.060;10.616;2022-08-18T05:27:53;96332.72;;;18.50;100.00
57628;BME280;43451;49.060;10.616;2022-08-18T05:30:19;96321.88;;;18.47;100.00
57628;BME280;43451;49.060;10.616;2022-08-18T05:32:44;96323.38;;;18.48;100.00
57628;BME280;43451;49.060;10.616;2022-08-18T05:35:12;96319.75;;;18.60;100.00
57628;BME280;43451;49.060;10.616;2022-08-18T05:38:04;96324.47;;;18.50;100.00
57628;BME280;43451;49.060;10.616;2022-08-18T05:40:24;96326.63;;;18.55;100.00
57628;BME280;43451;49.060;10.616;2022-08-18T05:42:50;96332.72;;;18.50;100.00
57628;BME280;43451;49.060;10.616;2022-08-18T05:45:17;96329.84;;;18.63;100.00
57628;BME280;43451;49.060;10.616;2022-08-18T05:47:42;96327.56;;;18.62;100.00
57628;BME280;43451;49.060;10.616;2022-08-18T05:50:13;96336.13;;;18.64;100.00
57628;BME280;43451;49.060;10.616;2022-08-18T05:55:11;96341.03;;;18.69;100.00
57628;BME280;43451;49.060;10.616;2022-08-18T05:58:17;96351.47;;;18.74;100.00
57628;BME280;43451;49.060;10.616;2022-08-18T06:00:44;96347.22;;;18.82;100.00
57628;BME280;43451;49.060;10.616;2022-08-18T06:03:15;96357.50;;;18.91;100.00
57628;BME280;43451;49.060;10.616;2022-08-18T06:05:55;96363.94;;;18.97;100.00
57628;BME280;43451;49.060;10.616;2022-08-18T06:08:23;96367.91;;;19.14;100.00
57628;BME280;43451;49.060;10.616;2022-08-18T06:10:51;96380.34;;;19.19;100.00
57628;BME280;43451;49.060;10.616;2022-08-18T06:13:17;96395.34;;;19.27;100.00
57628;BME280;43451;49.060;10.616;2022-08-18T06:23:41;96376.50;;;19.44;100.00
57628;BME280;43451;49.060;10.616;2022-08-18T06:36:36;96369.50;;;19.70;100.00
57628;BME280;43451;49.060;10.616;2022-08-18T06:39:46;96376.22;;;19.79;100.00
57628;BME280;43451;49.060;10.616;2022-08-18T06:41:51;96374.84;;;19.92;100.00
57628;BME280;43451;49.060;10.616;2022-08-18T06:44:35;96374.53;;;20.00;100.00
57628;BME280;43451;49.060;10.616;2022-08-18T06:47:13;96366.22;;;20.09;100.00
57628;BME280;43451;49.060;10.616;2022-08-18T06:49:42;96361.91;;;20.17;100.00
57628;BME280;43451;49.060;10.616;2022-08-18T06:55:13;96359.75;;;20.30;100.00
57628;BME280;43451;49.060;10.616;2022-08-18T06:57:56;96366.94;;;20.37;100.00
57628;BME280;43451;49.060;10.616;2022-08-18T07:00:26;96376.22;;;20.49;100.00
57628;BME280;43451;49.060;10.616;2022-08-18T07:02:53;96374.06;;;20.62;96.16
57628;BME280;43451;49.060;10.616;2022-08-18T07:05:21;96380.47;;;20.68;96.44
57628;BME280;43451;49.060;10.616;2022-08-18T07:10:33;96366.50;;;20.72;96.94
57628;BME280;43451;49.060;10.616;2022-08-18T07:15:36;96371.69;;;20.79;96.94
57628;BME280;43451;49.060;10.616;2022-08-18T07:18:03;96381.03;;;20.81;95.16
57628;BME280;43451;49.060;10.616;2022-08-18T07:20:30;96386.50;;;20.91;98.16
57628;BME280;43451;49.060;10.616;2022-08-18T07:23:04;96389.09;;;20.94;94.92
57628;BME280;43451;49.060;10.616;2022-08-18T07:25:32;96380.09;;;21.08;93.94
57628;BME280;43451;49.060;10.616;2022-08-18T07:28:02;96379.34;;;21.08;91.77
57628;BME280;43451;49.060;10.616;2022-08-18T07:30:30;96382.47;;;21.01;96.00
57628;BME280;43451;49.060;10.616;2022-08-18T07:32:59;96382.09;;;21.08;95.90
57628;BME280;43451;49.060;10.616;2022-08-18T07:35:32;96380.03;;;21.18;92.34
57628;BME280;43451;49.060;10.616;2022-08-18T07:38:02;96380.34;;;21.20;94.02
57628;BME280;43451;49.060;10.616;2022-08-18T07:40:40;96368.22;;;21.17;96.07
57628;BME280;43451;49.060;10.616;2022-08-18T07:43:10;96372.19;;;21.25;93.73
57628;BME280;43451;49.060;10.616;2022-08-18T07:45:40;96370.19;;;21.26;92.68
57628;BME280;43451;49.060;10.616;2022-08-18T07:48:11;96370.38;;;21.22;95.44
57628;BME280;43451;49.060;10.616;2022-08-18T07:51:02;96365.78;;;21.19;93.97
57628;BME280;43451;49.060;10.616;2022-08-18T07:53:46;96362.41;;;21.15;94.02
57628;BME280;43451;49.060;10.616;2022-08-18T07:56:17;96348.91;;;21.17;94.95
57628;BME280;43451;49.060;10.616;2022-08-18T08:03:58;96349.97;;;21.20;93.95
57628;BME280;43451;49.060;10.616;2022-08-18T08:06:37;96344.47;;;21.35;92.66
57628;BME280;43451;49.060;10.616;2022-08-18T08:17:06;96363.59;;;21.47;94.17
57628;BME280;43451;49.060;10.616;2022-08-18T08:19:43;96368.19;;;21.50;95.57
57628;BME280;43451;49.060;10.616;2022-08-18T08:24:51;96359.19;;;21.79;89.31
57628;BME280;43451;49.060;10.616;2022-08-18T08:27:25;96352.03;;;21.73;90.94
57628;BME280;43451;49.060;10.616;2022-08-18T08:30:04;96361.66;;;21.77;86.91
57628;BME280;43451;49.060;10.616;2022-08-18T08:32:31;96364.72;;;21.79;89.70
57628;BME280;43451;49.060;10.616;2022-08-18T08:34:59;96364.59;;;21.74;87.31
57628;BME280;43451;49.060;10.616;2022-08-18T08:40:04;96351.66;;;21.95;82.55
57628;BME280;43451;49.060;10.616;2022-08-18T08:45:15;96343.84;;;22.08;82.91
57628;BME280;43451;49.060;10.616;2022-08-18T08:47:46;96345.16;;;22.13;82.74
57628;BME280;43451;49.060;10.616;2022-08-18T08:50:37;96342.69;;;22.00;85.50
57628;BME280;43451;49.060;10.616;2022-08-18T08:55:52;96354.53;;;22.15;84.34
57628;BME280;43451;49.060;10.616;2022-08-18T08:59:05;96346.88;;;22.10;85.70
57628;BME280;43451;49.060;10.616;2022-08-18T09:01:04;96345.66;;;22.26;83.45
57628;BME280;43451;49.060;10.616;2022-08-18T09:03:35;96335.63;;;22.43;82.50
57628;BME280;43451;49.060;10.616;2022-08-18T09:11:42;96327.78;;;22.57;85.46
57628;BME280;43451;49.060;10.616;2022-08-18T09:24:57;96318.50;;;23.36;77.30
57628;BME280;43451;49.060;10.616;2022-08-18T09:29:55;96313.19;;;23.58;77.40
57628;BME280;43451;49.060;10.616;2022-08-18T09:37:16;96301.91;;;23.88;72.88
57628;BME280;43451;49.060;10.616;2022-08-18T09:39:48;96300.97;;;23.97;69.59
57628;BME280;43451;49.060;10.616;2022-08-18T09:42:46;96296.09;;;23.86;71.25
57628;BME280;43451;49.060;10.616;2022-08-18T09:45:58;96298.06;;;23.80;70.02
57628;BME280;43451;49.060;10.616;2022-08-18T09:50:34;96326.59;;;23.60;69.58
57628;BME280;43451;49.060;10.616;2022-08-18T09:53:15;96314.72;;;23.59;69.19
57628;BME280;43451;49.060;10.616;2022-08-18T09:55:52;96324.72;;;23.51;68.67
57628;BME280;43451;49.060;10.616;2022-08-18T09:58:20;96321.81;;;23.60;69.53
57628;BME280;43451;49.060;10.616;2022-08-18T10:01:17;96315.53;;;23.66;71.31
57628;BME280;43451;49.060;10.616;2022-08-18T10:03:42;96319.84;;;23.67;68.20
57628;BME280;43451;49.060;10.616;2022-08-18T10:06:13;96327.81;;;23.79;67.42
57628;BME280;43451;49.060;10.616;2022-08-18T10:11:14;96323.75;;;23.54;70.43
57628;BME280;43451;49.060;10.616;2022-08-18T10:16:29;96310.28;;;23.68;67.13
57628;BME280;43451;49.060;10.616;2022-08-18T10:22:03;96320.06;;;23.63;66.29
57628;BME280;43451;49.060;10.616;2022-08-18T10:25:11;96321.09;;;23.66;66.27
57628;BME280;43451;49.060;10.616;2022-08-18T10:28:03;96313.38;;;23.75;66.83
57628;BME280;43451;49.060;10.616;2022-08-18T10:30:03;96304.44;;;23.86;69.24
57628;BME280;43451;49.060;10.616;2022-08-18T10:32:37;96301.78;;;24.03;67.49
57628;BME280;43451;49.060;10.616;2022-08-18T10:35:03;96293.91;;;24.27;65.75
57628;BME280;43451;49.060;10.616;2022-08-18T10:37:37;96293.47;;;24.35;64.74
57628;BME280;43451;49.060;10.616;2022-08-18T10:45:24;96282.84;;;24.70;64.54
57628;BME280;43451;49.060;10.616;2022-08-18T10:50:40;96270.97;;;25.13;61.57
57628;BME280;43451;49.060;10.616;2022-08-18T10:55:39;96251.97;;;25.11;59.76
57628;BME280;43451;49.060;10.616;2022-08-18T11:00:58;96243.72;;;25.39;58.17
57628;BME280;43451;49.060;10.616;2022-08-18T11:06:02;96233.31;;;25.23;56.31
57628;BME280;43451;49.060;10.616;2022-08-18T11:08:28;96233.34;;;25.29;54.82
57628;BME280;43451;49.060;10.616;2022-08-18T11:10:54;96213.84;;;25.23;55.87
57628;BME280;43451;49.060;10.616;2022-08-18T11:13:27;96213.84;;;25.23;54.81
57628;BME280;43451;49.060;10.616;2022-08-18T11:20:53;96238.19;;;25.56;54.02
57628;BME280;43451;49.060;10.616;2022-08-18T11:23:19;96240.25;;;25.67;53.17
57628;BME280;43451;49.060;10.616;2022-08-18T11:25:44;96230.63;;;25.57;52.76
57628;BME280;43451;49.060;10.616;2022-08-18T11:28:20;96227.56;;;25.38;53.12
57628;BME280;43451;49.060;10.616;2022-08-18T11:30:48;96221.97;;;25.32;55.16
57628;BME280;43451;49.060;10.616;2022-08-18T11:33:16;96223.97;;;25.26;54.30
57628;BME280;43451;49.060;10.616;2022-08-18T11:35:47;96227.28;;;25.36;53.33
57628;BME280;43451;49.060;10.616;2022-08-18T11:38:14;96217.97;;;25.67;53.97
57628;BME280;43451;49.060;10.616;2022-08-18T11:40:41;96208.09;;;25.71;52.81
57628;BME280;43451;49.060;10.616;2022-08-18T11:56:12;96220.25;;;26.30;50.96
57628;BME280;43451;49.060;10.616;2022-08-18T11:58:55;96230.41;;;26.05;50.54
57628;BME280;43451;49.060;10.616;2022-08-18T12:09:36;96224.56;;;26.03;51.82
57628;BME280;43451;49.060;10.616;2022-08-18T12:12:16;96225.09;;;26.02;53.84
57628;BME280;43451;49.060;10.616;2022-08-18T12:17:17;96206.06;;;26.28;50.34
57628;BME280;43451;49.060;10.616;2022-08-18T12:19:42;96201.03;;;26.21;49.99
57628;BME280;43451;49.060;10.616;2022-08-18T12:22:15;96198.72;;;26.25;51.04
57628;BME280;43451;49.060;10.616;2022-08-18T12:24:40;96199.47;;;26.43;50.45
57628;BME280;43451;49.060;10.616;2022-08-18T12:27:06;96178.19;;;26.45;51.57
57628;BME280;43451;49.060;10.616;2022-08-18T12:29:31;96167.53;;;26.44;49.96
57628;BME280;43451;49.060;10.616;2022-08-18T12:31:57;96145.00;;;26.42;50.75
57628;BME280;43451;49.060;10.616;2022-08-18T12:34:23;96149.00;;;26.63;50.10
57628;BME280;43451;49.060;10.616;2022-08-18T12:36:53;96161.88;;;26.72;50.37
57628;BME280;43451;49.060;10.616;2022-08-18T12:39:19;96155.72;;;26.90;49.87
57628;BME280;43451;49.060;10.616;2022-08-18T12:41:45;96150.66;;;26.89;49.28
57628;BME280;43451;49.060;10.616;2022-08-18T12:44:10;96142.84;;;26.81;49.75
57628;BME280;43451;49.060;10.616;2022-08-18T12:46:36;96130.94;;;26.81;48.88
57628;BME280;43451;49.060;10.616;2022-08-18T12:49:03;96123.38;;;26.70;49.18
57628;BME280;43451;49.060;10.616;2022-08-18T12:51:28;96121.16;;;26.57;48.44
57628;BME280;43451;49.060;10.616;2022-08-18T12:53:54;96115.56;;;26.63;49.34
57628;BME280;43451;49.060;10.616;2022-08-18T12:56:24;96111.50;;;26.64;49.21
57628;BME280;43451;49.060;10.616;2022-08-18T12:58:49;96106.69;;;26.65;49.21
57628;BME280;43451;49.060;10.616;2022-08-18T13:01:16;96094.75;;;26.64;49.53
57628;BME280;43451;49.060;10.616;2022-08-18T13:03:41;96083.09;;;26.71;49.07
57628;BME280;43451;49.060;10.616;2022-08-18T13:06:09;96089.13;;;26.81;47.60
57628;BME280;43451;49.060;10.616;2022-08-18T13:08:35;96103.81;;;26.81;47.60
57628;BME280;43451;49.060;10.616;2022-08-18T13:11:01;96094.69;;;26.81;47.52
57628;BME280;43451;49.060;10.616;2022-08-18T13:13:26;96100.19;;;26.92;48.35
57628;BME280;43451;49.060;10.616;2022-08-18T13:15:52;96093.06;;;26.97;48.35
57628;BME280;43451;49.060;10.616;2022-08-18T13:18:19;96096.44;;;26.84;48.85
57628;BME280;43451;49.060;10.616;2022-08-18T13:20:44;96103.69;;;26.98;48.21
57628;BME280;43451;49.060;10.616;2022-08-18T13:23:10;96096.34;;;27.01;47.67
57628;BME280;43451;49.060;10.616;2022-08-18T13:25:36;96100.31;;;27.17;47.36
57628;BME280;43451;49.060;10.616;2022-08-18T13:28:02;96092.19;;;27.13;48.03
57628;BME280;43451;49.060;10.616;2022-08-18T13:30:28;96095.28;;;27.09;48.25
57628;BME280;43451;49.060;10.616;2022-08-18T13:32:53;96098.09;;;27.04;46.76
57628;BME280;43451;49.060;10.616;2022-08-18T13:35:19;96087.13;;;27.12;46.72
57628;BME280;43451;49.060;10.616;2022-08-18T13:37:44;96091.69;;;27.15;46.99
57628;BME280;43451;49.060;10.616;2022-08-18T13:40:10;96092.19;;;27.19;46.26
57628;BME280;43451;49.060;10.616;2022-08-18T13:42:44;96096.03;;;27.10;45.97
57628;BME280;43451;49.060;10.616;2022-08-18T13:45:12;96100.03;;;27.20;46.25
57628;BME280;43451;49.060;10.616;2022-08-18T13:47:38;96103.09;;;27.11;47.66
57628;BME280;43451;49.060;10.616;2022-08-18T13:50:03;96099.56;;;27.16;47.38
57628;BME280;43451;49.060;10.616;2022-08-18T13:52:29;96086.38;;;27.11;46.95
57628;BME280;43451;49.060;10.616;2022-08-18T13:54:54;96083.31;;;27.15;47.13
57628;BME280;43451;49.060;10.616;2022-08-18T13:57:20;96076.50;;;27.16;48.40
57628;BME280;43451;49.060;10.616;2022-08-18T13:59:45;96070.34;;;27.23;46.36
57628;BME280;43451;49.060;10.616;2022-08-18T14:02:10;96070.31;;;27.28;46.43
57628;BME280;43451;49.060;10.616;2022-08-18T14:04:36;96070.88;;;27.21;45.53
57628;BME280;43451;49.060;10.616;2022-08-18T14:07:02;96072.38;;;27.22;45.12
57628;BME280;43451;49.060;10.616;2022-08-18T14:09:28;96069.13;;;27.18;44.81
57628;BME280;43451;49.060;10.616;2022-08-18T14:11:54;96072.94;;;27.15;44.82
57628;BME280;43451;49.060;10.616;2022-08-18T14:14:20;96076.69;;;27.23;45.18
57628;BME280;43451;49.060;10.616;2022-08-18T14:16:45;96087.03;;;27.28;45.32
57628;BME280;43451;49.060;10.616;2022-08-18T14:19:11;96080.75;;;27.22;46.05
57628;BME280;43451;49.060;10.616;2022-08-18T14:21:55;96080.97;;;27.24;45.69
57628;BME280;43451;49.060;10.616;2022-08-18T14:24:39;96071.09;;;27.23;46.47
57628;BME280;43451;49.060;10.616;2022-08-18T14:27:31;96063.66;;;27.37;46.67
57628;BME280;43451;49.060;10.616;2022-08-18T14:29:58;96065.56;;;27.48;46.70
57628;BME280;43451;49.060;10.616;2022-08-18T14:32:24;96065.03;;;27.49;47.86
57628;BME280;43451;49.060;10.616;2022-08-18T14:34:57;96071.63;;;27.52;46.02
57628;BME280;43451;49.060;10.616;2022-08-18T14:37:22;96082.06;;;27.46;46.55
57628;BME280;43451;49.060;10.616;2022-08-18T14:39:48;96076.03;;;27.42;47.37
57628;BME280;43451;49.060;10.616;2022-08-18T14:42:14;96091.56;;;27.37;45.60
57628;BME280;43451;49.060;10.616;2022-08-18T14:44:40;96094.69;;;27.22;48.59
57628;BME280;43451;49.060;10.616;2022-08-18T14:47:05;96094.69;;;27.22;48.00
57628;BME280;43451;49.060;10.616;2022-08-18T14:49:31;96094.16;;;27.24;46.86
57628;BME280;43451;49.060;10.616;2022-08-18T14:51:57;96088.31;;;27.27;46.67
57628;BME280;43451;49.060;10.616;2022-08-18T14:54:23;96083.75;;;27.24;47.21
57628;BME280;43451;49.060;10.616;2022-08-18T14:56:48;96075.63;;;27.26;46.55
57628;BME280;43451;49.060;10.616;2022-08-18T14:59:14;96069.50;;;27.34;46.35
57628;BME280;43451;49.060;10.616;2022-08-18T15:01:39;96067.03;;;27.24;47.51
57628;BME280;43451;49.060;10.616;2022-08-18T15:04:04;96057.09;;;27.29;45.65
57628;BME280;43451;49.060;10.616;2022-08-18T15:06:30;96057.34;;;27.31;46.14
57628;BME280;43451;49.060;10.616;2022-08-18T15:08:56;96051.53;;;27.29;46.15